Freeman, Washington
Current Conditions -  °F | °C
As of 9:53 AM on Friday 21 Nov 2014 (Local Time) from KSFF Reporting Station
Haze Haze  
Wind Chill: 36°   Ceiling: 7000
Heat Index: 36°   Visibility: 3mi
Dew Point: 32°   Wind: 0mph
Humidity: 86%   Direction: NA
Pressure: 29.89"   Gusts: NA
Location:  47.52°N, 117.2°W
Report Text: KSFF 211753Z 00000KT 3SM BR OVC070 02/00 A2989 RMK AO2 SLP135 T00220000 10022 20000 58012
Loading
Personal Weather Stations






























Interactive Weather Map New forecast layout! Learn more

10-Day Weather Forecast

Advertisements
Track Severe Weather on mobile